Barton, North Dakota
Current Conditions -  °F | °C
As of 5:55 AM on Saturday 22 Nov 2014 (Local Time) from KRUG Reporting Station
Clear Clear  
Wind Chill: 23°   Ceiling: Unl
Heat Index: 23°   Visibility: 8mi
Dew Point: 23°   Wind: 0mph
Humidity: 100%   Direction: NA
Pressure: 29.55"   Gusts: NA
Location:  48.5496°N, 100.255°W
Report Text: KRUG 221155Z AUTO 00000KT 8SM CLR M05/M05 A2955 RMK AO2
Loading
Personal Weather Stations






























Interactive Weather Map New forecast layout! Learn more

10-Day Weather Forecast

Advertisements
Track Severe Weather on mobile